Time;durP1;ratioP1;P1;durP2;ratioP2;P2;SDS_P1;SDS_P2;PMS_P1;PMS_P2;Temp;Humidity;BMP_temperature;BMP_pressure;BME280_temperature;BME280_humidity;BME280_pressure;Samples;Min_cycle;Max_cycle;Signal;HPM_P1;HPM_P2
2021/05/20 00:00:57;;;;;;;;;;;8.10;99.90;;;;;;5126079;27;20729;-55
2021/05/20 00:03:22;;;;;;;4.22;3.40;;;8.10;99.90;;;;;;5124532;28;20430;-55
2021/05/20 00:05:48;;;;;;;;;;;8.10;99.90;;;;;;5126784;28;20050;-58
2021/05/20 00:08:13;;;;;;;5.90;3.70;;;8.20;99.90;;;;;;5126751;28;19942;-58
2021/05/20 00:10:39;;;;;;;;;;;8.20;99.90;;;;;;5126151;28;20035;-58
2021/05/20 00:13:05;;;;;;;3.92;2.80;;;8.20;99.90;;;;;;5126363;28;19915;-58
2021/05/20 00:15:30;;;;;;;;;;;8.30;99.90;;;;;;5125801;27;20089;-56
2021/05/20 00:17:56;;;;;;;4.60;2.30;;;8.30;99.90;;;;;;5117907;28;19916;-58
2021/05/20 00:20:21;;;;;;;;;;;8.30;99.90;;;;;;5112782;28;20054;-58
2021/05/20 00:22:46;;;;;;;9.63;3.20;;;8.30;99.90;;;;;;5111755;28;19953;-55
2021/05/20 00:25:12;;;;;;;;;;;8.40;99.90;;;;;;5112979;28;20055;-57
2021/05/20 00:27:38;;;;;;;6.28;3.40;;;8.30;99.90;;;;;;5110845;28;19915;-58
2021/05/20 00:30:05;;;;;;;;;;;8.30;99.90;;;;;;5111967;28;20066;-56
2021/05/20 00:32:30;;;;;;;12.10;3.67;;;8.30;99.90;;;;;;5111609;28;19923;-59
2021/05/20 00:34:56;;;;;;;;;;;8.40;99.90;;;;;;5112010;28;20081;-56
2021/05/20 00:37:21;;;;;;;9.98;6.32;;;8.40;99.90;;;;;;5106147;28;20411;-58
2021/05/20 00:39:47;;;;;;;;;;;8.30;99.90;;;;;;5112171;27;20131;-57
2021/05/20 00:42:13;;;;;;;9.52;4.55;;;8.30;99.90;;;;;;5112418;28;19970;-58
2021/05/20 00:44:51;;;;;;;;;;;8.30;99.90;;;;;;5111848;28;20058;-59
2021/05/20 00:47:19;;;;;;;10.38;4.90;;;8.30;99.90;;;;;;5111193;28;19920;-58
2021/05/20 00:49:44;;;;;;;9.02;5.30;;;8.30;99.90;;;;;;5112034;28;20040;-59
2021/05/20 00:52:10;;;;;;;;;;;8.30;99.90;;;;;;5112376;28;20046;-57
2021/05/20 00:54:35;;;;;;;8.32;6.05;;;8.20;99.90;;;;;;5111680;28;19919;-58
2021/05/20 00:57:03;;;;;;;8.77;6.15;;;8.30;99.90;;;;;;5111405;28;20047;-57
2021/05/20 00:59:29;;;;;;;6.85;5.22;;;8.30;99.90;;;;;;5111405;28;20042;-59
2021/05/20 01:01:54;;;;;;;;;;;8.30;99.90;;;;;;5111590;28;20035;-59
2021/05/20 01:04:20;;;;;;;8.35;5.78;;;8.30;99.90;;;;;;5110894;28;20331;-56
2021/05/20 01:06:45;;;;;;;;;;;8.30;99.90;;;;;;5111816;28;20051;-58
2021/05/20 01:09:10;;;;;;;12.40;7.05;;;8.30;99.90;;;;;;5111610;28;19954;-58
2021/05/20 01:11:36;;;;;;;;;;;8.30;99.90;;;;;;5111907;28;20043;-58
2021/05/20 01:14:02;;;;;;;10.70;7.53;;;8.30;99.90;;;;;;5110841;28;19915;-61
2021/05/20 01:16:27;;;;;;;;;;;8.20;99.90;;;;;;5111260;28;20041;-61
2021/05/20 01:18:53;;;;;;;13.10;9.73;;;8.20;99.90;;;;;;5111754;28;19916;-60
2021/05/20 01:21:18;;;;;;;;;;;8.20;99.90;;;;;;5111231;28;20092;-58
2021/05/20 01:23:44;;;;;;;12.05;8.10;;;8.30;99.90;;;;;;5109632;28;19919;-57
2021/05/20 01:26:09;;;;;;;;;;;8.20;99.90;;;;;;5111891;27;20035;-59
2021/05/20 01:28:35;;;;;;;16.55;11.07;;;8.20;99.90;;;;;;5105877;28;19916;-59
2021/05/20 01:31:01;;;;;;;;;;;8.20;99.90;;;;;;5107444;27;20047;-59
2021/05/20 01:33:27;;;;;;;16.63;10.85;;;8.20;99.90;;;;;;5110584;28;19923;-58
2021/05/20 01:35:52;;;;;;;;;;;8.20;99.90;;;;;;5111562;28;20417;-55
2021/05/20 01:41:14;;;;;;;14.88;9.52;;;8.20;99.90;;;;;;5101650;28;20067;-59
2021/05/20 01:43:40;;;;;;;;;;;8.30;99.90;;;;;;5111726;28;20055;-59
2021/05/20 01:46:06;;;;;;;17.88;11.75;;;8.30;99.90;;;;;;5109230;28;19926;-58
2021/05/20 01:48:39;;;;;;;21.70;14.60;;;8.20;99.90;;;;;;5110679;28;20044;-59
2021/05/20 01:51:08;;;;;;;23.38;15.75;;;8.30;99.90;;;;;;5111147;28;20070;-59
2021/05/20 01:53:34;;;;;;;22.70;15.52;;;8.30;99.90;;;;;;5110769;28;20039;-58
2021/05/20 01:56:01;;;;;;;27.80;16.80;;;8.30;99.90;;;;;;5110097;28;20035;-58
2021/05/20 01:58:27;;;;;;;27.83;16.05;;;8.20;99.90;;;;;;5110371;28;20436;-58
2021/05/20 02:00:53;;;;;;;27.02;16.30;;;8.10;99.90;;;;;;5109893;28;20178;-57
2021/05/20 02:03:19;;;;;;;;;;;8.20;99.90;;;;;;5110662;28;20107;-57
2021/05/20 02:05:44;;;;;;;17.83;9.70;;;8.10;99.90;;;;;;5108720;28;20026;-58
2021/05/20 02:08:10;;;;;;;;;;;8.00;99.90;;;;;;5111608;28;20411;-57
2021/05/20 02:10:36;;;;;;;17.30;6.93;;;7.90;99.90;;;;;;5110245;28;19930;-56
2021/05/20 02:13:02;;;;;;;11.27;6.50;;;7.90;99.90;;;;;;5110332;28;20036;-58
2021/05/20 02:15:28;;;;;;;;;;;7.90;99.90;;;;;;5109786;28;20304;-59
2021/05/20 02:17:53;;;;;;;4.82;2.88;;;7.90;99.90;;;;;;5110601;28;19926;-58
2021/05/20 02:20:20;;;;;;;;;;;7.90;99.90;;;;;;5110588;28;20214;-58
2021/05/20 02:22:45;;;;;;;4.65;2.97;;;7.80;99.90;;;;;;5110000;28;19960;-58
2021/05/20 02:25:11;;;;;;;;;;;7.70;99.90;;;;;;5110729;28;20043;-57
2021/05/20 02:27:37;;;;;;;3.65;2.65;;;7.70;99.90;;;;;;5110050;28;19965;-57
2021/05/20 02:30:04;;;;;;;;;;;7.70;99.90;;;;;;5109673;28;20127;-56
2021/05/20 02:32:29;;;;;;;4.85;2.95;;;7.70;99.90;;;;;;5108129;28;19947;-55
2021/05/20 02:34:55;;;;;;;;;;;7.70;99.90;;;;;;5110156;28;20466;-56
2021/05/20 02:37:20;;;;;;;4.65;2.92;;;7.70;99.90;;;;;;5110279;28;19916;-56
2021/05/20 02:39:46;;;;;;;;;;;7.70;99.90;;;;;;5110186;28;20678;-58
2021/05/20 02:42:11;;;;;;;7.40;4.50;;;7.70;99.90;;;;;;5110002;28;19958;-58
2021/05/20 02:44:37;;;;;;;;;;;7.60;99.90;;;;;;5110059;28;20530;-58
2021/05/20 02:47:02;;;;;;;9.18;5.78;;;7.60;99.90;;;;;;5108959;28;19923;-58
2021/05/20 02:49:28;;;;;;;;;;;7.60;99.90;;;;;;5110458;28;20107;-58
2021/05/20 02:51:53;;;;;;;15.50;7.85;;;7.60;99.90;;;;;;5110053;28;20371;-58
2021/05/20 02:54:19;;;;;;;;;;;7.60;99.90;;;;;;5110516;28;20495;-57
2021/05/20 02:56:44;;;;;;;13.00;8.13;;;7.60;99.90;;;;;;5109592;28;19919;-58
2021/05/20 02:59:10;;;;;;;;;;;7.60;99.90;;;;;;5108075;28;20040;-58
2021/05/20 03:01:42;;;;;;;14.05;8.15;;;7.60;99.90;;;;;;5108983;28;19926;-56
2021/05/20 03:04:08;;;;;;;18.50;10.52;;;7.70;99.90;;;;;;5108815;28;20123;-54
2021/05/20 03:06:34;;;;;;;;;;;7.70;99.90;;;;;;5108734;28;20490;-52
2021/05/20 03:08:59;;;;;;;17.63;8.60;;;7.70;99.90;;;;;;5109420;28;19939;-55
2021/05/20 03:11:26;;;;;;;;;;;7.80;99.90;;;;;;5109993;28;20040;-53
2021/05/20 03:13:52;;;;;;;8.68;5.97;;;7.80;99.90;;;;;;5109084;28;19920;-56
2021/05/20 03:16:17;;;;;;;;;;;7.80;99.90;;;;;;5109436;28;20050;-51
2021/05/20 03:18:43;;;;;;;13.50;7.72;;;7.80;99.90;;;;;;5110446;28;20039;-56
2021/05/20 03:21:08;;;;;;;11.32;6.75;;;7.80;99.90;;;;;;5109412;28;20046;-52
2021/05/20 03:23:34;;;;;;;;;;;7.80;99.90;;;;;;5109715;28;20040;-56
2021/05/20 03:25:59;;;;;;;18.05;10.32;;;7.80;99.90;;;;;;5106229;28;19920;-59
2021/05/20 03:28:25;;;;;;;;;;;7.90;99.90;;;;;;5109349;28;20043;-55
2021/05/20 03:30:50;;;;;;;18.95;11.43;;;7.80;99.90;;;;;;5108875;27;19962;-56
2021/05/20 03:33:16;;;;;;;;;;;7.80;99.90;;;;;;5108777;28;20035;-55
2021/05/20 03:35:41;;;;;;;22.85;12.38;;;7.80;99.90;;;;;;5107901;28;19955;-55
2021/05/20 03:38:07;;;;;;;;;;;7.80;99.90;;;;;;5109949;28;20431;-53
2021/05/20 03:40:32;;;;;;;19.10;11.27;;;7.80;99.90;;;;;;5109085;28;19920;-57
2021/05/20 03:42:58;;;;;;;;;;;7.90;99.90;;;;;;5109241;28;20085;-59
2021/05/20 03:45:23;;;;;;;22.13;12.27;;;7.80;99.90;;;;;;5108678;28;20416;-58
2021/05/20 03:47:49;;;;;;;;;;;7.90;99.90;;;;;;5110326;28;20076;-59
2021/05/20 03:50:15;;;;;;;29.20;15.63;;;7.90;99.90;;;;;;5108906;28;19919;-58
2021/05/20 03:52:40;;;;;;;;;;;7.90;99.90;;;;;;5109435;28;20499;-56
2021/05/20 03:55:06;;;;;;;28.30;15.52;;;7.90;99.90;;;;;;5113050;28;19915;-57
2021/05/20 03:57:31;;;;;;;;;;;8.00;99.90;;;;;;5113160;28;20491;-55
2021/05/20 03:59:57;;;;;;;25.40;14.32;;;8.00;99.90;;;;;;5112568;28;19916;-58
2021/05/20 04:02:22;;;;;;;;;;;8.10;99.90;;;;;;5112617;28;20044;-58
2021/05/20 04:04:48;;;;;;;30.17;16.08;;;8.00;99.90;;;;;;5113033;28;19916;-57
2021/05/20 04:07:14;;;;;;;;;;;8.00;99.90;;;;;;5113745;28;20141;-59
2021/05/20 04:09:39;;;;;;;32.50;16.65;;;8.10;99.90;;;;;;5112755;28;19920;-58
2021/05/20 04:12:05;;;;;;;;;;;8.10;99.90;;;;;;5113424;28;20032;-57
2021/05/20 04:14:30;;;;;;;34.95;15.68;;;8.10;99.90;;;;;;5112426;28;19916;-59
2021/05/20 04:16:56;;;;;;;;;;;8.10;99.90;;;;;;5113067;28;20398;-58
2021/05/20 04:19:22;;;;;;;32.00;17.83;;;8.10;99.90;;;;;;5112472;28;19916;-58
2021/05/20 04:21:47;;;;;;;;;;;8.20;99.90;;;;;;5112919;28;20035;-53
2021/05/20 04:24:13;;;;;;;31.38;16.92;;;8.20;99.90;;;;;;5112370;28;19922;-53
2021/05/20 04:26:38;;;;;;;;;;;8.20;99.90;;;;;;5111603;28;20039;-54
2021/05/20 04:29:04;;;;;;;27.63;15.70;;;8.20;99.90;;;;;;5112261;28;19977;-56
2021/05/20 04:31:32;;;;;;;26.63;15.75;;;8.20;99.90;;;;;;5110924;28;20447;-56
2021/05/20 04:33:57;;;;;;;28.10;16.45;;;8.30;99.90;;;;;;5112167;28;20040;-50
2021/05/20 04:36:23;;;;;;;;;;;8.30;99.90;;;;;;5110595;28;20036;-58
2021/05/20 04:38:48;;;;;;;29.63;16.88;;;8.30;99.90;;;;;;5112135;28;20025;-61
2021/05/20 04:41:14;;;;;;;;;;;8.30;99.90;;;;;;5112581;28;20238;-58
2021/05/20 04:43:39;;;;;;;32.35;18.20;;;8.30;99.90;;;;;;5111892;28;19967;-58
2021/05/20 04:46:05;;;;;;;;;;;8.20;99.90;;;;;;5112093;28;20051;-57
2021/05/20 04:48:31;;;;;;;29.20;16.60;;;8.30;99.90;;;;;;5111859;28;19960;-56
2021/05/20 04:50:59;;;;;;;27.05;17.13;;;8.30;99.90;;;;;;5111758;28;20054;-54
2021/05/20 04:53:24;;;;;;;25.80;16.10;;;8.30;99.90;;;;;;5110783;28;20035;-58
2021/05/20 04:55:50;;;;;;;;;;;8.30;99.90;;;;;;5112383;28;20402;-55
2021/05/20 04:58:16;;;;;;;23.13;13.85;;;8.30;99.90;;;;;;5111679;28;20335;-60
2021/05/20 05:00:41;;;;;;;;;;;8.40;99.90;;;;;;5110929;28;20031;-56
2021/05/20 05:03:07;;;;;;;24.50;14.77;;;8.50;99.90;;;;;;5111220;28;19920;-55
2021/05/20 05:05:32;;;;;;;;;;;8.60;99.90;;;;;;5111860;28;20043;-56
2021/05/20 05:07:58;;;;;;;22.25;13.95;;;8.60;99.90;;;;;;5111514;28;20057;-57
2021/05/20 05:10:23;;;;;;;;;;;8.70;99.90;;;;;;5111674;28;20487;-56
2021/05/20 05:12:49;;;;;;;20.98;13.35;;;8.80;99.90;;;;;;5111269;28;19920;-58
2021/05/20 05:15:14;;;;;;;;;;;9.00;99.90;;;;;;5110196;28;20080;-57
2021/05/20 05:17:40;;;;;;;21.77;13.55;;;9.10;99.90;;;;;;5108353;28;19915;-54
2021/05/20 05:20:07;;;;;;;;;;;9.20;99.90;;;;;;5103924;28;20458;-58
2021/05/20 05:22:32;;;;;;;17.80;11.73;;;9.50;99.90;;;;;;5104126;27;20307;-56
2021/05/20 05:24:58;;;;;;;;;;;9.70;99.90;;;;;;5110625;28;20042;-58
2021/05/20 05:27:24;;;;;;;19.58;12.05;;;9.70;99.90;;;;;;5113913;27;19931;-56
2021/05/20 05:29:49;;;;;;;;;;;9.60;99.90;;;;;;5110873;28;20040;-55
2021/05/20 05:32:15;;;;;;;20.90;12.23;;;9.60;99.90;;;;;;5110432;27;20006;-54
2021/05/20 05:34:40;;;;;;;;;;;9.60;99.90;;;;;;5111407;27;20117;-58
2021/05/20 05:37:06;;;;;;;23.80;13.82;;;9.80;99.90;;;;;;5110554;28;19946;-58
2021/05/20 05:39:32;;;;;;;;;;;9.80;99.90;;;;;;5110181;27;20031;-53
2021/05/20 05:41:57;;;;;;;24.30;13.43;;;9.70;99.90;;;;;;5107767;28;20415;-57
2021/05/20 05:44:23;;;;;;;;;;;9.70;99.90;;;;;;5106138;28;20044;-57
2021/05/20 05:46:49;;;;;;;25.55;14.20;;;9.60;99.90;;;;;;5109145;28;19920;-56
2021/05/20 05:49:17;;;;;;;;;;;9.50;99.90;;;;;;5111082;28;20044;-58
2021/05/20 05:51:49;;;;;;;20.20;12.55;;;10.40;99.90;;;;;;5111013;28;19919;-58
2021/05/20 05:54:14;;;;;;;20.23;11.90;;;11.30;99.90;;;;;;5109572;28;20044;-59
2021/05/20 05:56:40;;;;;;;;;;;11.30;99.90;;;;;;5107611;28;20100;-58
2021/05/20 05:59:05;;;;;;;18.00;10.90;;;11.20;99.90;;;;;;5109419;28;19924;-58
2021/05/20 06:01:31;;;;;;;;;;;11.30;99.90;;;;;;5101093;28;20044;-56
2021/05/20 06:03:58;;;;;;;16.70;10.23;;;11.10;99.90;;;;;;5099704;28;20449;-58
2021/05/20 06:06:24;;;;;;;17.88;11.27;;;11.00;99.90;;;;;;5098463;28;20082;-57
2021/05/20 06:08:49;;;;;;;;;;;10.90;99.90;;;;;;5100967;28;20321;-57
2021/05/20 06:11:15;;;;;;;16.27;9.38;;;10.80;99.90;;;;;;5101312;28;19929;-59
2021/05/20 06:13:40;;;;;;;;;;;10.80;99.90;;;;;;5081414;28;20100;-59
2021/05/20 06:16:06;;;;;;;22.20;10.95;;;10.70;99.90;;;;;;5101310;27;19916;-60
2021/05/20 06:18:31;;;;;;;;;;;10.70;99.90;;;;;;5098410;28;20380;-60
2021/05/20 06:20:57;;;;;;;14.98;8.38;;;10.80;99.90;;;;;;5099506;28;19923;-59
2021/05/20 06:23:23;;;;;;;;;;;11.00;99.90;;;;;;5098503;28;20040;-60
2021/05/20 06:25:48;;;;;;;14.93;9.20;;;10.80;99.90;;;;;;5097527;28;19924;-59
2021/05/20 06:28:14;;;;;;;;;;;10.90;99.90;;;;;;5103294;28;20031;-59
2021/05/20 06:30:39;;;;;;;13.25;8.70;;;11.10;99.90;;;;;;5099338;28;19920;-57
2021/05/20 06:33:05;;;;;;;;;;;11.40;99.90;;;;;;5099491;28;20092;-59
2021/05/20 06:35:31;;;;;;;18.27;10.98;;;12.40;99.90;;;;;;5100440;28;20376;-59
2021/05/20 06:37:56;;;;;;;;;;;12.60;99.90;;;;;;5099887;28;20487;-59
2021/05/20 06:40:22;;;;;;;15.80;9.70;;;13.50;99.50;;;;;;5123478;27;19959;-60
2021/05/20 06:42:47;;;;;;;;;;;14.70;97.20;;;;;;5100175;28;20043;-59
2021/05/20 06:45:13;;;;;;;14.30;9.07;;;14.30;97.40;;;;;;5100081;28;19927;-58
2021/05/20 06:47:39;;;;;;;15.20;9.77;;;13.90;98.00;;;;;;5098465;28;20043;-60
2021/05/20 06:50:05;;;;;;;;;;;13.50;97.70;;;;;;5105983;28;20516;-59
2021/05/20 06:52:31;;;;;;;17.27;10.60;;;13.10;99.50;;;;;;5109603;28;19922;-57
2021/05/20 06:54:56;;;;;;;;;;;12.60;99.80;;;;;;5109550;28;20038;-59
2021/05/20 06:57:28;;;;;;;18.02;11.82;;;12.30;99.90;;;;;;5109415;28;19926;-57
2021/05/20 06:59:57;;;;;;;18.80;11.38;;;11.90;99.90;;;;;;5110039;28;20051;-56
2021/05/20 07:02:27;;;;;;;20.45;10.85;;;11.70;99.90;;;;;;5108809;28;20434;-62
2021/05/20 07:04:53;;;;;;;15.35;9.45;;;11.80;99.90;;;;;;5108698;28;20128;-59
2021/05/20 07:07:19;;;;;;;15.55;10.23;;;12.80;99.90;;;;;;5109372;28;20071;-58
2021/05/20 07:09:45;;;;;;;;;;;14.00;97.90;;;;;;5110586;28;20063;-65
2021/05/20 07:12:12;;;;;;;33.47;9.73;;;14.60;97.70;;;;;;5108618;28;20002;-60
2021/05/20 07:14:37;;;;;;;19.80;9.98;;;15.50;95.10;;;;;;5109329;28;20514;-60
2021/05/20 07:17:03;;;;;;;;;;;16.00;94.30;;;;;;5109271;28;20058;-58
2021/05/20 07:19:28;;;;;;;15.15;9.07;;;15.80;93.10;;;;;;5109739;28;19915;-60
2021/05/20 07:21:54;;;;;;;;;;;15.50;94.80;;;;;;5108099;28;20042;-61
2021/05/20 07:24:20;;;;;;;10.65;7.78;;;14.80;93.10;;;;;;5108890;28;20418;-59
2021/05/20 07:26:45;;;;;;;;;;;14.40;95.20;;;;;;5107930;28;20109;-64
2021/05/20 07:29:11;;;;;;;13.20;7.90;;;15.00;94.20;;;;;;5111566;28;20340;-60
2021/05/20 07:31:37;;;;;;;;;;;15.30;92.20;;;;;;5113252;28;20057;-61
2021/05/20 07:34:03;;;;;;;13.90;9.25;;;15.10;92.80;;;;;;5112910;28;20570;-62
2021/05/20 07:36:29;;;;;;;;;;;14.70;94.40;;;;;;5100899;28;20044;-59
2021/05/20 07:38:54;;;;;;;17.80;9.38;;;14.20;95.10;;;;;;5108605;28;19919;-61
2021/05/20 07:41:20;;;;;;;;;;;13.80;96.00;;;;;;5112696;28;20039;-61
2021/05/20 07:43:46;;;;;;;11.48;7.38;;;13.70;97.60;;;;;;5113736;28;19915;-59
2021/05/20 07:46:11;;;;;;;;;;;13.50;95.20;;;;;;5112345;27;20050;-58
2021/05/20 07:48:37;;;;;;;11.35;7.38;;;15.20;93.80;;;;;;5111458;28;19942;-59
2021/05/20 07:51:06;;;;;;;8.27;6.30;;;17.10;90.00;;;;;;5112425;28;20043;-58
2021/05/20 07:53:32;;;;;;;13.73;8.93;;;18.80;77.70;;;;;;5112445;28;20548;-59
2021/05/20 07:55:58;;;;;;;10.88;7.40;;;20.00;69.10;;;;;;5112043;28;20039;-59
2021/05/20 07:58:23;;;;;;;8.20;6.18;;;21.20;66.70;;;;;;5111892;28;20036;-59
2021/05/20 08:00:49;;;;;;;11.10;7.05;;;21.70;62.30;;;;;;5111990;28;20329;-57
2021/05/20 08:03:30;;;;;;;10.27;6.55;;;22.90;58.10;;;;;;5109918;28;20066;-60
2021/05/20 08:10:54;;;;;;;9.48;6.50;;;20.30;58.50;;;;;;5082171;22;20052;-71
2021/05/20 08:13:20;;;;;;;8.85;5.95;;;18.40;59.50;;;;;;5036598;28;20041;-70
2021/05/20 08:15:46;;;;;;;9.18;6.45;;;17.50;68.10;;;;;;5041031;28;20124;-71
2021/05/20 08:18:12;;;;;;;8.88;5.80;;;18.50;63.50;;;;;;5056464;28;20132;-71
2021/05/20 08:20:38;;;;;;;8.73;5.47;;;20.30;64.30;;;;;;5074184;28;20481;-71
2021/05/20 08:23:04;;;;;;;7.38;4.97;;;19.50;58.90;;;;;;5056646;28;20132;-71
2021/05/20 08:25:30;;;;;;;14.85;6.82;;;19.30;64.60;;;;;;5074568;28;20032;-70
2021/05/20 08:27:55;;;;;;;7.38;5.40;;;20.10;60.30;;;;;;5055597;28;20047;-71
2021/05/20 08:30:21;;;;;;;7.05;4.78;;;20.40;59.30;;;;;;5051977;28;20041;-72
2021/05/20 08:32:48;;;;;;;6.28;4.50;;;21.50;54.90;;;;;;5056373;28;20123;-71
2021/05/20 08:35:15;;;;;;;8.50;5.55;;;20.70;55.80;;;;;;5055857;28;20047;-70
2021/05/20 08:37:42;;;;;;;14.27;9.18;;;19.00;59.60;;;;;;5055819;28;20537;-71
2021/05/20 08:40:12;;;;;;;10.55;6.38;;;18.20;67.20;;;;;;5055783;28;20140;-71
2021/05/20 08:42:38;;;;;;;8.88;5.72;;;17.10;67.20;;;;;;5056066;28;20044;-70
2021/05/20 08:45:13;;;;;;;9.48;5.10;;;16.00;71.90;;;;;;5055413;28;20038;-71
2021/05/20 08:47:39;;;;;;;11.20;5.57;;;17.60;73.70;;;;;;5049842;28;20068;-71
2021/05/20 08:50:06;;;;;;;9.30;5.70;;;19.00;67.30;;;;;;5055876;28;20036;-71
2021/05/20 08:52:33;;;;;;;8.60;5.50;;;19.20;58.40;;;;;;5051942;28;20516;-71
2021/05/20 08:55:00;;;;;;;9.23;5.07;;;18.60;57.20;;;;;;5055040;28;20051;-70
2021/05/20 08:57:26;;;;;;;13.13;5.93;;;18.30;66.60;;;;;;5055556;28;20044;-71
2021/05/20 08:59:53;;;;;;;9.55;5.88;;;17.20;65.90;;;;;;5052833;28;20051;-70
2021/05/20 09:02:29;;;;;;;;;;;16.60;68.70;;;;;;5049316;28;20044;-71
2021/05/20 09:05:06;;;;;;;7.53;4.53;;;16.30;71.50;;;;;;5055168;28;19920;-71
2021/05/20 09:07:36;;;;;;;9.05;5.97;;;15.90;72.00;;;;;;5053255;28;20044;-71
2021/05/20 09:10:17;;;;;;;12.48;6.32;;;15.70;76.40;;;;;;5054834;28;20309;-71
2021/05/20 09:12:44;;;;;;;8.70;5.38;;;15.20;78.90;;;;;;5052103;28;20044;-70
2021/05/20 09:15:25;;;;;;;8.48;4.95;;;15.10;76.30;;;;;;5052171;28;20063;-70
2021/05/20 09:17:51;;;;;;;9.20;5.50;;;15.10;80.70;;;;;;5054910;28;20041;-70
2021/05/20 09:20:18;;;;;;;11.68;6.65;;;14.90;78.70;;;;;;5047206;28;20041;-71
2021/05/20 09:22:44;;;;;;;9.98;6.30;;;15.00;81.00;;;;;;5050467;28;20040;-70
2021/05/20 09:25:11;;;;;;;;;;;14.90;80.20;;;;;;5053890;28;20132;-71
2021/05/20 09:27:42;;;;;;;8.68;5.53;;;14.90;84.90;;;;;;5052065;28;19920;-71
2021/05/20 09:30:09;;;;;;;10.63;6.55;;;15.00;80.30;;;;;;5054301;28;20529;-73
2021/05/20 09:32:36;;;;;;;11.82;6.10;;;14.70;84.00;;;;;;5055458;28;20044;-70
2021/05/20 09:35:03;;;;;;;12.00;8.18;;;14.50;85.50;;;;;;5052603;28;20068;-71
2021/05/20 09:37:29;;;;;;;13.30;6.47;;;14.40;85.40;;;;;;5052174;28;20033;-71
2021/05/20 09:40:02;;;;;;;;;;;14.30;84.80;;;;;;5070263;28;20087;-71
2021/05/20 09:42:31;;;;;;;8.85;5.05;;;14.50;83.40;;;;;;5046522;28;19970;-71
2021/05/20 09:45:08;;;;;;;15.38;6.95;;;14.50;80.70;;;;;;5045513;28;20052;-71
2021/05/20 09:47:34;;;;;;;10.82;5.53;;;14.40;80.90;;;;;;5048415;28;20436;-71
2021/05/20 09:50:10;;;;;;;;;;;14.60;83.60;;;;;;5043775;28;20473;-71
2021/05/20 09:52:36;;;;;;;8.95;5.30;;;14.40;80.50;;;;;;5051867;28;19962;-70
2021/05/20 09:55:15;;;;;;;9.90;5.90;;;14.30;79.50;;;;;;5043976;28;20051;-70
2021/05/20 09:57:41;;;;;;;8.73;4.70;;;14.40;80.40;;;;;;5046247;28;20045;-71
2021/05/20 10:00:17;;;;;;;;;;;14.70;81.70;;;;;;5054224;28;20052;-71
2021/05/20 10:02:45;;;;;;;8.05;4.82;;;14.80;81.30;;;;;;5053965;28;20285;-71
2021/05/20 10:05:44;;;;;;;11.48;6.43;;;14.70;77.00;;;;;;5043173;28;20133;-72
2021/05/20 10:08:12;;;;;;;12.65;4.93;;;14.30;78.90;;;;;;5017915;28;20138;-71
2021/05/20 10:10:40;;;;;;;7.85;5.00;;;14.50;84.00;;;;;;5066419;28;20083;-71
2021/05/20 10:13:34;;;;;;;12.23;5.10;;;14.50;81.40;;;;;;5049994;28;20079;-70
2021/05/20 10:16:01;;;;;;;9.57;5.38;;;14.70;84.60;;;;;;5045463;28;20131;-70
2021/05/20 10:18:28;;;;;;;30.50;13.73;;;15.20;84.50;;;;;;5052075;28;20120;-71
2021/05/20 10:21:03;;;;;;;9.45;5.40;;;15.50;81.60;;;;;;5045794;28;20051;-71
2021/05/20 10:23:29;;;;;;;11.25;4.75;;;15.60;76.50;;;;;;5041873;28;20056;-71
2021/05/20 10:25:57;;;;;;;;;;;15.60;76.40;;;;;;5052887;28;20560;-71
2021/05/20 10:28:25;;;;;;;9.50;4.88;;;15.30;79.60;;;;;;5050380;28;19916;-71
2021/05/20 10:30:56;;;;;;;9.43;4.22;;;15.60;84.70;;;;;;5043649;28;20090;-71
2021/05/20 10:33:28;;;;;;;9.05;4.82;;;15.90;78.50;;;;;;5046156;28;20036;-70
2021/05/20 10:35:57;;;;;;;8.68;3.67;;;15.60;79.20;;;;;;5052341;28;20105;-71
2021/05/20 10:38:25;;;;;;;7.63;4.15;;;15.30;76.90;;;;;;5051087;28;20047;-70
2021/05/20 10:41:12;;;;;;;9.35;5.15;;;15.10;73.20;;;;;;5044523;28;20068;-71
2021/05/20 10:43:40;;;;;;;8.02;4.55;;;14.90;75.30;;;;;;5047151;28;20498;-71
2021/05/20 10:46:14;;;;;;;8.10;4.57;;;14.90;75.70;;;;;;5050832;28;20079;-70
2021/05/20 10:48:55;;;;;;;14.23;10.02;;;15.10;78.80;;;;;;5046821;28;20041;-71
2021/05/20 10:51:23;;;;;;;10.20;4.85;;;15.00;77.60;;;;;;5046601;28;20033;-71
2021/05/20 10:54:02;;;;;;;8.45;4.45;;;14.90;76.70;;;;;;5048013;28;20036;-70
2021/05/20 10:56:31;;;;;;;8.63;5.00;;;14.80;80.00;;;;;;5069951;28;20053;-71
2021/05/20 10:58:58;;;;;;;7.97;4.35;;;15.00;81.80;;;;;;5052799;28;20040;-71
2021/05/20 11:01:24;;;;;;;9.43;5.43;;;15.30;80.70;;;;;;5050251;28;20058;-71
2021/05/20 11:03:51;;;;;;;;;;;15.50;78.40;;;;;;5046677;28;20041;-71
2021/05/20 11:06:22;;;;;;;8.02;4.15;;;15.60;72.30;;;;;;5056175;28;19920;-71
2021/05/20 11:08:48;;;;;;;12.23;5.20;;;15.70;76.00;;;;;;5048980;28;20045;-70
2021/05/20 11:11:43;;;;;;;;;;;15.80;74.60;;;;;;5053310;28;20029;-71
2021/05/20 11:14:12;;;;;;;15.38;4.95;;;15.60;75.90;;;;;;5034762;28;19923;-71
2021/05/20 11:16:38;;;;;;;12.85;5.82;;;15.60;75.30;;;;;;5046963;28;20052;-71
2021/05/20 11:19:16;;;;;;;;;;;15.50;79.30;;;;;;5054230;28;20127;-71
2021/05/20 11:21:57;;;;;;;8.00;5.15;;;15.70;81.80;;;;;;5051287;28;19999;-71
2021/05/20 11:24:26;;;;;;;10.93;5.53;;;15.80;78.00;;;;;;5048604;28;20442;-71
2021/05/20 11:26:57;;;;;;;13.07;5.75;;;16.00;76.50;;;;;;5050252;28;20048;-71
2021/05/20 11:29:25;;;;;;;8.18;4.70;;;16.00;78.00;;;;;;5064726;28;20047;-71
2021/05/20 11:32:04;;;;;;;11.10;5.47;;;15.80;77.50;;;;;;5062207;28;20037;-72
2021/05/20 11:37:20;;;;;;;10.77;4.85;;;16.20;76.70;;;;;;5064891;28;20386;-71
2021/05/20 11:39:46;;;;;;;7.70;4.13;;;16.40;77.20;;;;;;5053644;28;20052;-71
2021/05/20 11:42:21;;;;;;;;;;;16.70;75.10;;;;;;5053082;28;20036;-71
2021/05/20 11:44:47;;;;;;;14.32;4.40;;;16.50;73.80;;;;;;5053096;28;19963;-71
2021/05/20 11:47:14;;;;;;;10.77;5.45;;;16.10;71.70;;;;;;5067458;28;20052;-71
2021/05/20 11:49:41;;;;;;;10.25;3.90;;;15.80;72.60;;;;;;5052967;28;20036;-72
2021/05/20 11:52:09;;;;;;;9.45;4.43;;;15.60;73.30;;;;;;5054642;28;20040;-71
2021/05/20 11:54:37;;;;;;;9.35;4.03;;;15.40;77.40;;;;;;5055146;28;20050;-71
2021/05/20 11:57:06;;;;;;;14.20;4.93;;;15.20;78.40;;;;;;5052534;28;20045;-72
2021/05/20 11:59:38;;;;;;;10.10;5.25;;;15.20;79.50;;;;;;5052923;28;20485;-72
2021/05/20 12:02:06;;;;;;;11.88;5.38;;;15.40;79.70;;;;;;5052707;28;20064;-72
2021/05/20 12:04:32;;;;;;;15.20;7.90;;;15.30;76.50;;;;;;5070689;28;20032;-72
2021/05/20 12:06:59;;;;;;;9.93;5.38;;;15.20;76.90;;;;;;5037637;28;20083;-72
2021/05/20 12:09:25;;;;;;;12.50;5.10;;;15.20;80.00;;;;;;5038901;28;20068;-72
2021/05/20 12:11:50;;;;;;;;;;;15.20;78.80;;;;;;5051411;28;20467;-71
2021/05/20 12:14:31;;;;;;;10.38;4.15;;;15.10;81.90;;;;;;5050701;28;19921;-71
2021/05/20 12:17:10;;;;;;;8.77;4.38;;;15.30;79.50;;;;;;5066120;28;20098;-72
2021/05/20 12:19:38;;;;;;;16.23;4.60;;;15.30;77.80;;;;;;5055888;28;20432;-71
2021/05/20 12:22:11;;;;;;;7.80;4.10;;;15.30;79.50;;;;;;5050405;28;20033;-72
2021/05/20 12:24:45;;;;;;;10.98;3.88;;;15.10;77.10;;;;;;5067435;28;20103;-71
2021/05/20 12:27:16;;;;;;;7.93;3.88;;;14.90;78.00;;;;;;5044342;28;20139;-72
2021/05/20 12:29:48;;;;;;;12.52;4.18;;;14.70;78.80;;;;;;5054554;28;20087;-71
2021/05/20 12:32:25;;;;;;;16.58;4.40;;;14.60;81.00;;;;;;5053089;28;20032;-70
2021/05/20 12:35:12;;;;;;;10.30;4.47;;;14.40;79.80;;;;;;5049717;28;20048;-70
2021/05/20 12:37:46;;;;;;;7.10;3.65;;;14.20;81.60;;;;;;5052557;28;20473;-72
2021/05/20 12:40:20;;;;;;;14.43;5.05;;;14.30;80.40;;;;;;5074164;28;20041;-72
2021/05/20 12:43:13;;;;;;;7.72;2.72;;;14.30;77.60;;;;;;5049324;28;20036;-71
2021/05/20 12:45:53;;;;;;;4.25;2.20;;;14.40;78.30;;;;;;5066364;28;20036;-72
2021/05/20 12:48:31;;;;;;;8.52;2.47;;;14.40;75.70;;;;;;5056165;28;20033;-71
2021/05/20 12:51:03;;;;;;;5.30;2.72;;;14.40;76.50;;;;;;5070416;28;20040;-70
2021/05/20 12:53:53;;;;;;;10.55;2.70;;;14.80;77.50;;;;;;5073288;28;20040;-71
2021/05/20 12:58:55;;;;;;;5.70;3.60;;;15.20;73.70;;;;;;5074101;28;20055;-70
2021/05/20 13:01:25;;;;;;;8.65;4.15;;;15.20;74.40;;;;;;5056277;28;20089;-70
2021/05/20 13:03:54;;;;;;;4.80;2.97;;;15.20;75.10;;;;;;5055208;28;20066;-70
2021/05/20 13:06:27;;;;;;;5.10;3.08;;;15.20;78.40;;;;;;5047642;28;20044;-71
2021/05/20 13:08:54;;;;;;;6.63;4.00;;;15.20;76.70;;;;;;5054941;28;20489;-70
2021/05/20 13:11:28;;;;;;;9.30;3.78;;;14.90;74.20;;;;;;5055814;28;20124;-70
2021/05/20 13:13:54;;;;;;;7.45;3.72;;;15.00;79.10;;;;;;5046402;28;20045;-70
2021/05/20 13:16:36;;;;;;;;;;;14.90;75.00;;;;;;5051270;28;20044;-70
2021/05/20 13:24:33;;;;;;;6.57;4.47;;;15.20;78.70;;;;;;5061034;28;20040;-70
2021/05/20 13:26:59;;;;;;;;;;;15.00;77.70;;;;;;5052641;28;20037;-71
2021/05/20 13:29:35;;;;;;;8.43;4.18;;;15.20;82.10;;;;;;5053291;28;19970;-69
2021/05/20 13:32:01;;;;;;;7.32;4.30;;;15.00;77.50;;;;;;5053367;28;20040;-72